createdAt,value
2019-04-01T00:02:07.740Z,2.03
2019-04-01T00:04:37.528Z,1.77
2019-04-01T00:07:07.289Z,1.80
2019-04-01T00:09:37.249Z,2.17
2019-04-01T00:12:08.655Z,2.00
2019-04-01T00:14:38.526Z,1.70
2019-04-01T00:17:09.275Z,1.50
2019-04-01T00:19:39.060Z,2.07
2019-04-01T00:22:09.823Z,1.70
2019-04-01T00:24:39.587Z,1.60
2019-04-01T00:27:09.249Z,1.60
2019-04-01T00:29:39.002Z,1.57
2019-04-01T00:32:08.657Z,1.43
2019-04-01T00:34:38.578Z,1.57
2019-04-01T00:37:08.374Z,1.40
2019-04-01T00:39:38.060Z,1.98
2019-04-01T00:42:21.948Z,2.30
2019-04-01T00:44:57.537Z,2.83
2019-04-01T00:47:28.595Z,1.90
2019-04-01T00:49:58.285Z,1.70
2019-04-01T00:52:28.174Z,1.60
2019-04-01T00:54:58.962Z,1.63
2019-04-01T00:57:28.639Z,1.73
2019-04-01T00:59:58.338Z,1.70
2019-04-01T01:02:28.175Z,2.40
2019-04-01T01:04:57.963Z,0.97
2019-04-01T01:07:27.698Z,1.60
2019-04-01T01:09:57.433Z,1.63
2019-04-01T01:12:33.580Z,1.15
2019-04-01T01:15:03.648Z,1.57
2019-04-01T01:17:34.306Z,1.55
2019-04-01T01:20:04.282Z,1.50
2019-04-01T01:22:33.946Z,2.00
2019-04-01T01:25:03.701Z,1.90
2019-04-01T01:27:33.514Z,1.57
2019-04-01T01:30:04.451Z,1.47
2019-04-01T01:32:34.353Z,1.50
2019-04-01T01:35:04.215Z,2.43
2019-04-01T01:37:34.183Z,1.50
2019-04-01T01:40:04.126Z,2.00
2019-04-01T01:42:33.807Z,2.10
2019-04-01T01:45:03.511Z,1.33
2019-04-01T01:47:33.773Z,1.20
2019-04-01T01:50:03.587Z,1.42
2019-04-01T01:52:33.248Z,1.83
2019-04-01T01:55:02.906Z,1.72
2019-04-01T01:57:33.507Z,1.60
2019-04-01T02:00:03.340Z,1.80
2019-04-01T02:02:34.831Z,1.60
2019-04-01T02:05:05.778Z,1.30
2019-04-01T02:07:35.463Z,1.40
2019-04-01T02:10:05.335Z,1.63
2019-04-01T02:12:35.008Z,1.47
2019-04-01T02:15:05.348Z,1.53
2019-04-01T02:17:35.194Z,2.00
2019-04-01T02:20:05.147Z,1.50
2019-04-01T02:22:34.878Z,1.47
2019-04-01T02:25:04.926Z,1.45
2019-04-01T02:27:34.760Z,1.40
2019-04-01T02:30:04.638Z,1.20
2019-04-01T02:32:34.393Z,1.57
2019-04-01T02:35:04.362Z,1.67
2019-04-01T02:37:34.169Z,1.67
2019-04-01T02:40:03.914Z,2.20
2019-04-01T02:42:33.702Z,2.10
2019-04-01T02:45:06.066Z,2.60
2019-04-01T02:47:35.842Z,1.60
2019-04-01T02:50:06.945Z,1.53
2019-04-01T02:52:37.637Z,1.43
2019-04-01T02:55:07.682Z,1.50
2019-04-01T02:57:37.605Z,1.60
2019-04-01T03:00:07.585Z,1.57
2019-04-01T03:02:37.358Z,1.43
2019-04-01T03:05:08.164Z,1.67
2019-04-01T03:07:37.913Z,1.97
2019-04-01T03:10:07.645Z,1.40
2019-04-01T03:12:37.247Z,1.87
2019-04-01T03:15:07.061Z,2.03
2019-04-01T03:17:36.942Z,1.50
2019-04-01T03:20:07.013Z,1.90
2019-04-01T03:22:36.829Z,1.33
2019-04-01T03:25:07.572Z,1.80
2019-04-01T03:27:37.587Z,1.73
2019-04-01T03:30:07.760Z,1.87
2019-04-01T03:32:44.313Z,1.80
2019-04-01T03:35:08.950Z,1.00
2019-04-01T03:37:38.693Z,1.53
2019-04-01T03:40:08.667Z,1.40
2019-04-01T03:42:39.588Z,1.90
2019-04-01T03:45:09.652Z,1.40
2019-04-01T03:47:39.431Z,1.80
2019-04-01T03:50:09.088Z,1.57
2019-04-01T03:52:38.812Z,1.60
2019-04-01T03:55:08.529Z,1.70
2019-04-01T03:57:38.347Z,1.50
2019-04-01T04:00:08.642Z,1.70
2019-04-01T04:02:40.904Z,1.60
2019-04-01T04:05:10.812Z,1.77
2019-04-01T04:07:40.489Z,1.70
2019-04-01T04:10:10.383Z,1.70
2019-04-01T04:12:40.079Z,1.70
2019-04-01T04:15:09.876Z,1.83
2019-04-01T04:17:39.848Z,1.57
2019-04-01T04:20:09.768Z,1.63
2019-04-01T04:22:39.566Z,1.65
2019-04-01T04:25:09.293Z,1.40
2019-04-01T04:27:39.490Z,1.87
2019-04-01T04:30:09.448Z,1.85
2019-04-01T04:32:39.226Z,2.00
2019-04-01T04:35:08.937Z,1.20
2019-04-01T04:37:38.676Z,1.67
2019-04-01T04:40:08.612Z,1.60
2019-04-01T04:42:38.297Z,1.53
2019-04-01T04:45:08.376Z,1.47
2019-04-01T04:47:38.111Z,1.60
2019-04-01T04:50:07.829Z,1.90
2019-04-01T04:52:38.286Z,2.30
2019-04-01T04:55:08.049Z,1.93
2019-04-01T04:57:37.846Z,2.00
2019-04-01T05:00:08.216Z,2.93
2019-04-01T05:02:38.050Z,1.77
2019-04-01T05:05:07.770Z,1.80
2019-04-01T05:07:37.633Z,2.23
2019-04-01T05:10:08.435Z,2.50
2019-04-01T05:12:38.076Z,2.03
2019-04-01T05:15:08.913Z,2.30
2019-04-01T05:17:38.571Z,2.50
2019-04-01T05:20:08.426Z,2.80
2019-04-01T05:22:39.168Z,2.13
2019-04-01T05:25:09.272Z,2.30
2019-04-01T05:27:40.186Z,1.70
2019-04-01T05:30:10.151Z,2.35
2019-04-01T05:32:40.793Z,2.60
2019-04-01T05:35:10.570Z,1.93
2019-04-01T05:37:40.480Z,3.50
2019-04-01T05:40:10.668Z,2.65
2019-04-01T05:42:40.431Z,2.33
2019-04-01T05:45:10.287Z,2.50
2019-04-01T05:47:43.558Z,2.50
2019-04-01T05:50:13.781Z,2.03
2019-04-01T05:52:43.532Z,2.60
2019-04-01T05:55:14.642Z,2.20
2019-04-01T05:57:44.970Z,2.72
2019-04-01T06:00:21.274Z,2.53
2019-04-01T06:02:51.463Z,2.40
2019-04-01T06:05:21.178Z,2.30
2019-04-01T06:07:50.885Z,2.50
2019-04-01T06:10:20.667Z,2.13
2019-04-01T06:12:50.730Z,2.57
2019-04-01T06:15:21.580Z,2.42
2019-04-01T06:17:51.351Z,2.70
2019-04-01T06:20:21.119Z,2.60
2019-04-01T06:22:50.922Z,2.40
2019-04-01T06:25:20.588Z,2.20
2019-04-01T06:27:51.394Z,3.10
2019-04-01T06:30:21.235Z,2.20
2019-04-01T06:32:51.038Z,1.72
2019-04-01T06:35:20.800Z,2.60
2019-04-01T06:37:50.673Z,2.13
2019-04-01T06:40:20.366Z,2.10
2019-04-01T06:42:50.155Z,2.23
2019-04-01T06:45:19.919Z,2.55
2019-04-01T06:47:49.688Z,2.37
2019-04-01T06:50:19.703Z,2.03
2019-04-01T06:52:49.406Z,2.57
2019-04-01T06:55:20.133Z,2.07
2019-04-01T06:57:49.812Z,2.02
2019-04-01T07:00:19.575Z,2.30
2019-04-01T07:02:49.333Z,2.60
2019-04-01T07:05:19.079Z,2.17
2019-04-01T07:07:48.952Z,1.90
2019-04-01T07:10:18.703Z,2.35
2019-04-01T07:12:48.524Z,2.00
2019-04-01T07:15:18.344Z,2.58
2019-04-01T07:17:48.090Z,2.70
2019-04-01T07:20:17.974Z,2.67
2019-04-01T07:22:47.762Z,2.53
2019-04-01T07:25:17.596Z,2.10
2019-04-01T07:27:47.337Z,2.53
2019-04-01T07:30:17.290Z,2.57
2019-04-01T07:32:47.134Z,2.17
2019-04-01T07:35:16.887Z,2.20
2019-04-01T07:37:46.860Z,2.60
2019-04-01T07:40:16.597Z,2.57
2019-04-01T07:42:46.615Z,2.90
2019-04-01T07:45:16.480Z,2.30
2019-04-01T07:47:46.513Z,2.90
2019-04-01T07:50:16.973Z,2.43
2019-04-01T07:52:46.691Z,2.33
2019-04-01T07:55:16.553Z,2.70
2019-04-01T07:57:46.293Z,2.10
2019-04-01T08:00:16.037Z,2.40
2019-04-01T08:02:48.862Z,2.37
2019-04-01T08:05:18.107Z,2.70
2019-04-01T08:07:49.081Z,2.57
2019-04-01T08:10:18.831Z,2.40
2019-04-01T08:12:48.884Z,2.30
2019-04-01T08:15:21.383Z,2.43
2019-04-01T08:17:50.040Z,2.67
2019-04-01T08:20:20.686Z,2.60
2019-04-01T08:22:51.036Z,2.67
2019-04-01T08:25:20.781Z,2.50
2019-04-01T08:27:50.793Z,2.50
2019-04-01T08:30:20.557Z,2.83
2019-04-01T08:32:51.255Z,2.58
2019-04-01T08:35:21.034Z,2.92
2019-04-01T08:37:50.983Z,2.70
2019-04-01T08:40:20.668Z,2.90
2019-04-01T08:42:50.385Z,3.15
2019-04-01T08:45:21.145Z,3.47
2019-04-01T08:47:50.951Z,3.08
2019-04-01T08:50:22.647Z,3.40
2019-04-01T08:52:52.605Z,2.80
2019-04-01T08:55:22.509Z,3.50
2019-04-01T08:57:52.273Z,3.10
2019-04-01T09:00:22.001Z,3.25
2019-04-01T09:02:51.701Z,3.50
2019-04-01T09:05:21.423Z,3.75
2019-04-01T09:07:52.298Z,3.08
2019-04-01T09:10:22.074Z,3.05
2019-04-01T09:12:52.151Z,3.30
2019-04-01T09:15:21.886Z,3.30
2019-04-01T09:17:52.032Z,4.15
2019-04-01T09:20:21.840Z,3.73
2019-04-01T09:22:51.593Z,3.80
2019-04-01T09:25:21.339Z,3.60
2019-04-01T09:27:51.041Z,3.70
2019-04-01T09:30:20.791Z,3.87
2019-04-01T09:32:50.635Z,3.20
2019-04-01T09:35:20.377Z,3.65
2019-04-01T09:37:50.370Z,4.28
2019-04-01T09:40:20.129Z,4.00
2019-04-01T09:42:49.934Z,5.05
2019-04-01T09:45:19.760Z,4.10
2019-04-01T09:47:49.418Z,4.35
2019-04-01T09:50:19.156Z,4.15
2019-04-01T09:52:49.042Z,3.90
2019-04-01T09:55:18.889Z,4.40
2019-04-01T09:57:48.568Z,3.92
2019-04-01T10:00:18.399Z,4.55
2019-04-01T10:02:48.098Z,3.80
2019-04-01T10:05:17.837Z,3.67
2019-04-01T10:07:48.123Z,4.30
2019-04-01T10:10:18.062Z,4.55
2019-04-01T10:12:47.781Z,4.00
2019-04-01T10:15:17.746Z,4.42
2019-04-01T10:17:47.534Z,3.60
2019-04-01T10:20:17.748Z,4.00
2019-04-01T10:22:47.508Z,3.92
2019-04-01T10:25:17.245Z,3.87
2019-04-01T10:27:47.009Z,4.13
2019-04-01T10:30:16.921Z,3.73
2019-04-01T10:32:47.596Z,3.72
2019-04-01T10:35:17.618Z,3.27
2019-04-01T10:37:47.345Z,3.37
2019-04-01T10:40:17.175Z,3.87
2019-04-01T10:42:47.029Z,3.63
2019-04-01T10:45:16.979Z,3.70
2019-04-01T10:47:47.781Z,3.20
2019-04-01T10:50:17.708Z,3.52
2019-04-01T10:52:47.575Z,4.10
2019-04-01T10:55:17.252Z,4.00
2019-04-01T10:57:47.524Z,3.40
2019-04-01T11:00:17.407Z,3.70
2019-04-01T11:02:50.087Z,3.67
2019-04-01T11:05:18.640Z,3.17
2019-04-01T11:07:48.910Z,3.70
2019-04-01T11:10:18.719Z,3.23
2019-04-01T11:12:48.540Z,3.83
2019-04-01T11:15:20.145Z,3.60
2019-04-01T11:17:52.297Z,3.60
2019-04-01T11:20:21.772Z,3.60
2019-04-01T11:22:51.564Z,3.40
2019-04-01T11:25:21.288Z,3.52
2019-04-01T11:27:51.079Z,3.10
2019-04-01T11:30:22.637Z,3.27
2019-04-01T11:32:52.383Z,3.15
2019-04-01T11:35:22.105Z,3.97
2019-04-01T11:37:51.915Z,4.12
2019-04-01T11:40:21.895Z,3.50
2019-04-01T11:42:52.946Z,3.33
2019-04-01T11:45:22.926Z,3.27
2019-04-01T11:47:52.575Z,3.53
2019-04-01T11:50:22.368Z,4.55
2019-04-01T11:52:52.099Z,3.57
2019-04-01T11:55:21.824Z,2.90
2019-04-01T11:57:51.544Z,3.63
2019-04-01T12:00:21.439Z,4.60
2019-04-01T12:02:51.195Z,4.00
2019-04-01T12:05:21.752Z,3.77
2019-04-01T12:07:52.758Z,3.75
2019-04-01T12:10:22.511Z,3.63
2019-04-01T12:12:52.246Z,3.52
2019-04-01T12:15:22.190Z,3.57
2019-04-01T12:17:52.152Z,3.60
2019-04-01T12:20:22.058Z,3.87
2019-04-01T12:22:51.823Z,3.57
2019-04-01T12:25:21.433Z,4.03
2019-04-01T12:27:51.189Z,3.33
2019-04-01T12:30:20.945Z,4.00
2019-04-01T12:32:51.625Z,3.10
2019-04-01T12:35:21.361Z,4.00
2019-04-01T12:37:51.164Z,3.53
2019-04-01T12:40:20.889Z,3.40
2019-04-01T12:42:51.049Z,3.87
2019-04-01T12:45:20.704Z,3.80
2019-04-01T12:47:50.459Z,3.70
2019-04-01T12:50:20.309Z,4.00
2019-04-01T12:52:49.968Z,3.70
2019-04-01T12:55:19.712Z,3.83
2019-04-01T12:57:50.817Z,4.17
2019-04-01T13:00:22.364Z,4.37
2019-04-01T13:02:53.238Z,4.00
2019-04-01T13:05:23.676Z,3.90
2019-04-01T13:07:54.332Z,3.75
2019-04-01T13:10:24.167Z,4.20
2019-04-01T13:12:54.538Z,4.08
2019-04-01T13:15:25.465Z,4.23
2019-04-01T13:17:55.477Z,4.20
2019-04-01T13:20:37.186Z,4.20
2019-04-01T13:22:58.687Z,3.83
2019-04-01T13:25:28.482Z,3.90
2019-04-01T13:27:58.241Z,4.10
2019-04-01T13:30:27.886Z,3.90
2019-04-01T13:32:58.097Z,3.87
2019-04-01T13:35:28.672Z,4.62
2019-04-01T13:37:58.582Z,3.77
2019-04-01T13:40:28.272Z,4.03
2019-04-01T13:42:58.092Z,4.37
2019-04-01T13:45:31.525Z,4.27
2019-04-01T13:47:59.416Z,4.63
2019-04-01T13:50:29.228Z,4.10
2019-04-01T13:52:59.369Z,4.53
2019-04-01T13:55:29.195Z,3.85
2019-04-01T13:57:58.910Z,4.60
2019-04-01T14:00:28.740Z,4.28
2019-04-01T14:02:58.556Z,3.87
2019-04-01T14:05:28.466Z,4.12
2019-04-01T14:07:58.329Z,4.37
2019-04-01T14:10:28.407Z,4.30
2019-04-01T14:12:58.208Z,4.53
2019-04-01T14:15:28.058Z,4.87
2019-04-01T14:17:57.737Z,3.98
2019-04-01T14:20:27.497Z,4.20
2019-04-01T14:22:57.257Z,4.93
2019-04-01T14:25:27.049Z,4.70
2019-04-01T14:27:56.989Z,4.33
2019-04-01T14:30:26.802Z,4.37
2019-04-01T14:32:56.561Z,4.17
2019-04-01T14:35:27.206Z,4.40
2019-04-01T14:37:58.400Z,4.30
2019-04-01T14:40:28.173Z,3.93
2019-04-01T14:42:57.899Z,4.00
2019-04-01T14:45:28.704Z,4.57
2019-04-01T14:47:58.562Z,3.70
2019-04-01T14:50:28.631Z,4.17
2019-04-01T14:52:58.295Z,4.33
2019-04-01T14:55:28.093Z,4.40
2019-04-01T14:58:00.351Z,4.33
2019-04-01T15:00:29.972Z,3.92
2019-04-01T15:03:00.001Z,4.20
2019-04-01T15:05:29.770Z,4.90
2019-04-01T15:07:59.578Z,4.10
2019-04-01T15:10:29.386Z,4.07
2019-04-01T15:13:05.612Z,4.30
2019-04-01T15:15:30.870Z,4.73
2019-04-01T15:18:00.712Z,4.28
2019-04-01T15:20:30.492Z,4.83
2019-04-01T15:23:00.148Z,4.00
2019-04-01T15:25:30.938Z,4.63
2019-04-01T15:28:02.391Z,4.50
2019-04-01T15:30:32.363Z,4.45
2019-04-01T15:33:02.124Z,4.30
2019-04-01T15:35:31.784Z,3.97
2019-04-01T15:38:04.670Z,4.37
2019-04-01T15:40:36.072Z,4.30
2019-04-01T15:43:06.781Z,3.73
2019-04-01T15:45:37.425Z,4.37
2019-04-01T15:48:07.738Z,4.30
2019-04-01T15:50:38.414Z,4.07
2019-04-01T15:53:08.332Z,4.12
2019-04-01T15:55:38.080Z,4.27
2019-04-01T15:58:08.638Z,4.14
2019-04-01T16:00:38.457Z,4.83
2019-04-01T16:03:08.247Z,4.23
2019-04-01T16:05:38.246Z,4.37
2019-04-01T16:08:09.244Z,4.30
2019-04-01T16:10:38.942Z,4.37
2019-04-01T16:13:08.708Z,3.83
2019-04-01T16:15:39.531Z,4.00
2019-04-01T16:18:09.344Z,4.62
2019-04-01T16:20:39.205Z,4.07
2019-04-01T16:23:14.792Z,4.53
2019-04-01T16:25:45.604Z,4.63
2019-04-01T16:28:15.564Z,4.23
2019-04-01T16:30:45.940Z,4.53
2019-04-01T16:33:18.289Z,4.77
2019-04-01T16:35:49.312Z,4.50
2019-04-01T16:38:19.823Z,4.20
2019-04-01T16:40:52.422Z,4.97
2019-04-01T16:43:24.649Z,4.63
2019-04-01T16:45:56.063Z,4.03
2019-04-01T16:48:26.089Z,4.37
2019-04-01T16:50:57.105Z,4.17
2019-04-01T16:53:26.944Z,3.90
2019-04-01T16:55:56.918Z,3.80
2019-04-01T16:58:26.741Z,4.90
2019-04-01T17:00:56.574Z,4.43
2019-04-01T17:03:27.493Z,4.28
2019-04-01T17:05:57.363Z,4.23
2019-04-01T17:08:29.739Z,4.13
2019-04-01T17:10:59.779Z,5.00
2019-04-01T17:13:37.302Z,3.63
2019-04-01T17:16:07.005Z,4.80
2019-04-01T17:18:37.458Z,4.33
2019-04-01T17:21:07.948Z,4.33
2019-04-01T17:23:37.809Z,4.30
2019-04-01T17:26:07.517Z,4.10
2019-04-01T17:28:37.192Z,3.93
2019-04-01T17:31:07.685Z,4.10
2019-04-01T17:33:37.663Z,4.30
2019-04-01T17:36:07.380Z,4.30
2019-04-01T17:38:37.204Z,4.50
2019-04-01T17:41:06.928Z,4.17
2019-04-01T17:43:36.781Z,4.13
2019-04-01T17:46:08.240Z,5.10
2019-04-01T17:48:38.915Z,4.23
2019-04-01T17:51:08.720Z,4.28
2019-04-01T17:53:38.564Z,4.80
2019-04-01T17:56:08.462Z,4.72
2019-04-01T17:58:38.297Z,4.53
2019-04-01T18:01:08.200Z,4.50
2019-04-01T18:03:38.255Z,4.70
2019-04-01T18:06:07.975Z,4.60
2019-04-01T18:08:37.833Z,5.60
2019-04-01T18:11:07.843Z,4.00
2019-04-01T18:13:37.579Z,4.87
2019-04-01T18:16:07.544Z,4.93
2019-04-01T18:18:38.913Z,5.35
2019-04-01T18:21:09.159Z,4.57
2019-04-01T18:23:38.971Z,5.23
2019-04-01T18:26:08.753Z,4.58
2019-04-01T18:28:38.820Z,5.00
2019-04-01T18:31:08.611Z,5.90
2019-04-01T18:33:38.417Z,5.30
2019-04-01T18:36:08.233Z,5.03
2019-04-01T18:38:40.787Z,5.33
2019-04-01T18:41:09.404Z,5.13
2019-04-01T18:43:39.088Z,4.67
2019-04-01T18:46:08.861Z,4.70
2019-04-01T18:48:38.557Z,5.22
2019-04-01T18:51:08.322Z,5.70
2019-04-01T18:53:38.079Z,5.03
2019-04-01T18:56:08.056Z,5.40
2019-04-01T18:58:37.969Z,5.60
2019-04-01T19:01:07.890Z,5.25
2019-04-01T19:03:38.204Z,4.63
2019-04-01T19:06:09.891Z,5.67
2019-04-01T19:08:39.746Z,5.77
2019-04-01T19:11:10.241Z,5.57
2019-04-01T19:13:40.241Z,5.30
2019-04-01T19:16:12.104Z,6.17
2019-04-01T19:18:42.108Z,6.22
2019-04-01T19:21:12.043Z,5.70
2019-04-01T19:23:41.807Z,5.37
2019-04-01T19:26:11.658Z,5.67
2019-04-01T19:28:41.401Z,7.10
2019-04-01T19:31:12.175Z,6.53
2019-04-01T19:33:42.227Z,5.53
2019-04-01T19:36:13.204Z,6.00
2019-04-01T19:38:43.289Z,6.63
2019-04-01T19:41:13.207Z,6.67
2019-04-01T19:43:43.080Z,6.37
2019-04-01T19:46:13.130Z,6.60
2019-04-01T19:48:43.003Z,6.28
2019-04-01T19:51:13.860Z,6.90
2019-04-01T19:53:43.609Z,6.42
2019-04-01T19:56:13.463Z,6.87
2019-04-01T19:58:43.158Z,6.77
2019-04-01T20:01:12.846Z,6.78
2019-04-01T20:03:42.625Z,6.57
2019-04-01T20:06:12.494Z,7.47
2019-04-01T20:08:42.355Z,8.00
2019-04-01T20:11:12.134Z,6.97
2019-04-01T20:13:42.846Z,6.75
2019-04-01T20:16:13.068Z,7.60
2019-04-01T20:18:42.788Z,7.05
2019-04-01T20:21:12.641Z,7.13
2019-04-01T20:23:44.448Z,7.03
2019-04-01T20:26:14.246Z,7.60
2019-04-01T20:28:44.905Z,7.57
2019-04-01T20:31:15.627Z,7.10
2019-04-01T20:33:45.291Z,6.63
2019-04-01T20:36:27.582Z,7.17
2019-04-01T20:38:46.459Z,7.23
2019-04-01T20:41:17.147Z,7.30
2019-04-01T20:43:49.912Z,7.63
2019-04-01T20:46:18.534Z,7.70
2019-04-01T20:48:48.395Z,7.53
2019-04-01T20:51:18.063Z,8.07
2019-04-01T20:53:47.742Z,7.63
2019-04-01T20:56:17.529Z,7.33
2019-04-01T20:58:47.610Z,7.10
2019-04-01T21:01:17.436Z,7.47
2019-04-01T21:03:47.346Z,7.67
2019-04-01T21:06:18.135Z,7.17
2019-04-01T21:08:47.867Z,8.17
2019-04-01T21:11:17.564Z,7.80
2019-04-01T21:13:47.326Z,8.00
2019-04-01T21:16:17.093Z,8.77
2019-04-01T21:18:47.985Z,7.37
2019-04-01T21:21:19.032Z,7.70
2019-04-01T21:23:49.018Z,7.97
2019-04-01T21:26:18.786Z,8.57
2019-04-01T21:28:49.378Z,8.23
2019-04-01T21:31:19.134Z,8.03
2019-04-01T21:33:49.116Z,8.30
2019-04-01T21:36:19.140Z,8.20
2019-04-01T21:38:48.837Z,7.70
2019-04-01T21:41:20.409Z,8.10
2019-04-01T21:43:50.638Z,7.37
2019-04-01T21:46:21.638Z,7.67
2019-04-01T21:48:51.832Z,7.53
2019-04-01T21:51:21.618Z,7.43
2019-04-01T21:53:51.647Z,8.60
2019-04-01T21:56:23.110Z,8.23
2019-04-01T21:58:53.173Z,7.80
2019-04-01T22:01:23.076Z,7.50
2019-04-01T22:03:55.335Z,7.87
2019-04-01T22:06:25.581Z,8.47
2019-04-01T22:08:55.365Z,9.13
2019-04-01T22:11:25.222Z,7.05
2019-04-01T22:13:56.512Z,7.73
2019-04-01T22:16:26.275Z,8.00
2019-04-01T22:18:56.053Z,7.83
2019-04-01T22:21:26.104Z,8.13
2019-04-01T22:23:55.980Z,7.90
2019-04-01T22:26:28.057Z,7.57
2019-04-01T22:28:58.464Z,7.67
2019-04-01T22:31:28.194Z,7.50
2019-04-01T22:33:57.839Z,8.23
2019-04-01T22:36:31.290Z,7.87
2019-04-01T22:38:59.085Z,7.57
2019-04-01T22:41:29.452Z,8.17
2019-04-01T22:44:00.688Z,8.13
2019-04-01T22:46:30.390Z,7.37
2019-04-01T22:49:00.146Z,7.73
2019-04-01T22:51:30.740Z,7.23
2019-04-01T22:54:01.233Z,7.73
2019-04-01T22:56:31.796Z,8.73
2019-04-01T22:59:01.953Z,8.33
2019-04-01T23:01:31.689Z,8.03
2019-04-01T23:04:01.505Z,7.85
2019-04-01T23:06:31.193Z,7.43
2019-04-01T23:09:01.300Z,8.93
2019-04-01T23:11:33.965Z,7.80
2019-04-01T23:14:03.822Z,7.90
2019-04-01T23:16:33.672Z,7.42
2019-04-01T23:19:05.616Z,8.33
2019-04-01T23:21:35.294Z,8.53
2019-04-01T23:24:05.130Z,7.80
2019-04-01T23:26:34.865Z,8.50
2019-04-01T23:29:04.720Z,7.27
2019-04-01T23:31:34.335Z,7.97
2019-04-01T23:34:06.194Z,7.75
2019-04-01T23:36:35.856Z,8.27
2019-04-01T23:39:07.233Z,7.77
2019-04-01T23:41:36.968Z,8.03
2019-04-01T23:44:06.720Z,8.50
2019-04-01T23:46:36.382Z,8.87
2019-04-01T23:49:06.070Z,8.40
2019-04-01T23:51:36.238Z,8.20
2019-04-01T23:54:06.246Z,8.47
2019-04-01T23:56:36.793Z,8.77
2019-04-01T23:59:06.577Z,7.97
